Time;durP1;ratioP1;P1;durP2;ratioP2;P2;SDS_P1;SDS_P2;PMS_P1;PMS_P2;Temp;Humidity;BMP_temperature;BMP_pressure;BME280_temperature;BME280_humidity;BME280_pressure;Samples;Min_cycle;Max_cycle;Signal;HPM_P1;HPM_P2
2023/04/12 00:01:35;;;;;;;3.30;1.63;;;;;;;;;;5075608;28;20098;-57
2023/04/12 00:04:04;;;;;;;3.17;1.45;;;;;;;;;;5076284;28;20034;-56
2023/04/12 00:06:33;;;;;;;3.20;2.08;;;;;;;;;;5076316;28;20086;-55
2023/04/12 00:09:00;;;;;;;4.00;2.10;;;;;;;;;;5076406;28;20072;-56
2023/04/12 00:11:27;;;;;;;6.70;2.08;;;;;;;;;;5076630;28;20458;-56
2023/04/12 00:13:53;;;;;;;3.65;1.55;;;;;;;;;;5076419;28;20424;-56
2023/04/12 00:16:19;;;;;;;4.30;1.75;;;;;;;;;;5075992;28;20044;-56
2023/04/12 00:18:45;;;;;;;4.10;1.65;;;;;;;;;;5076753;28;20020;-56
2023/04/12 00:21:12;;;;;;;2.35;1.65;;;;;;;;;;5075752;28;20024;-57
2023/04/12 00:23:38;;;;;;;2.83;0.93;;;;;;;;;;5075784;28;20024;-55
2023/04/12 00:26:04;;;;;;;6.80;1.40;;;;;;;;;;5075877;28;20111;-53
2023/04/12 00:28:30;;;;;;;5.43;1.20;;;;;;;;;;5075704;28;20021;-54
2023/04/12 00:30:56;;;;;;;2.10;1.05;;;;;;;;;;5075741;28;20086;-55
2023/04/12 00:33:22;;;;;;;2.13;1.17;;;;;;;;;;5075962;28;20473;-54
2023/04/12 00:35:48;;;;;;;7.07;1.45;;;;;;;;;;5075328;28;20033;-55
2023/04/12 00:38:15;;;;;;;1.98;1.20;;;;;;;;;;5075891;28;20028;-54
2023/04/12 00:40:41;;;;;;;7.18;1.67;;;;;;;;;;5076047;28;20020;-53
2023/04/12 00:43:09;;;;;;;6.28;1.50;;;;;;;;;;5075249;28;20463;-56
2023/04/12 00:45:36;;;;;;;2.22;1.35;;;;;;;;;;5076326;28;20025;-56
2023/04/12 00:48:02;;;;;;;2.85;0.90;;;;;;;;;;5075902;28;20374;-56
2023/04/12 00:50:28;;;;;;;1.23;0.75;;;;;;;;;;5075348;28;20462;-56
2023/04/12 00:52:55;;;;;;;2.72;1.30;;;;;;;;;;5075345;28;20036;-56
2023/04/12 00:55:21;;;;;;;2.42;1.15;;;;;;;;;;5076090;28;20085;-54
2023/04/12 00:57:46;;;;;;;2.55;1.20;;;;;;;;;;5074921;28;20029;-56
2023/04/12 01:00:12;;;;;;;2.42;1.20;;;;;;;;;;5075980;28;20416;-57
2023/04/12 01:02:41;;;;;;;2.17;0.95;;;;;;;;;;5075153;28;20106;-54
2023/04/12 01:05:08;;;;;;;2.78;1.23;;;;;;;;;;5075364;28;20024;-56
2023/04/12 01:07:36;;;;;;;3.08;1.42;;;;;;;;;;5074772;28;20447;-55
2023/04/12 01:10:24;;;;;;;1.83;1.00;;;;;;;;;;5074901;28;20028;-55
2023/04/12 01:12:56;;;;;;;4.10;1.10;;;;;;;;;;5074661;28;20028;-55
2023/04/12 01:15:25;;;;;;;2.50;1.67;;;;;;;;;;5075072;28;20045;-57
2023/04/12 01:17:56;;;;;;;5.10;1.05;;;;;;;;;;5074863;28;20063;-55
2023/04/12 01:20:24;;;;;;;2.33;1.27;;;;;;;;;;5074748;28;20029;-56
2023/04/12 01:23:08;;;;;;;2.38;1.30;;;;;;;;;;5075237;28;20028;-57
2023/04/12 01:26:10;;;;;;;4.85;1.58;;;;;;;;;;5074219;28;20095;-57
2023/04/12 01:28:38;;;;;;;3.60;1.25;;;;;;;;;;5032488;28;20044;-57
2023/04/12 01:31:05;;;;;;;5.30;2.05;;;;;;;;;;5067035;28;20036;-57
2023/04/12 01:33:33;;;;;;;3.85;1.40;;;;;;;;;;5074487;28;20024;-57
2023/04/12 01:36:04;;;;;;;2.10;1.25;;;;;;;;;;5074749;28;20063;-57
2023/04/12 01:38:30;;;;;;;2.45;1.30;;;;;;;;;;5074792;28;20028;-57
2023/04/12 01:40:56;;;;;;;2.70;1.10;;;;;;;;;;5074020;28;20055;-57
2023/04/12 01:43:22;;;;;;;4.20;1.30;;;;;;;;;;5074657;28;20419;-57
2023/04/12 01:45:48;;;;;;;3.28;1.67;;;;;;;;;;5074578;28;20040;-57
2023/04/12 01:48:14;;;;;;;3.15;1.00;;;;;;;;;;5074848;28;20439;-57
2023/04/12 01:50:59;;;;;;;1.73;0.98;;;;;;;;;;5074728;28;20040;-57
2023/04/12 01:53:32;;;;;;;2.67;0.70;;;;;;;;;;5074167;28;20023;-55
2023/04/12 01:55:59;;;;;;;2.65;1.08;;;;;;;;;;5074602;28;20033;-57
2023/04/12 01:58:26;;;;;;;2.83;1.23;;;;;;;;;;5073784;28;20510;-55
2023/04/12 02:00:52;;;;;;;1.40;1.00;;;;;;;;;;5074052;28;20048;-57
2023/04/12 02:03:20;;;;;;;2.17;1.35;;;;;;;;;;5074106;28;20351;-54
2023/04/12 02:05:46;;;;;;;4.45;1.70;;;;;;;;;;5074631;28;20144;-55
2023/04/12 02:08:12;;;;;;;3.03;1.48;;;;;;;;;;5074320;28;20021;-57
2023/04/12 02:10:39;;;;;;;3.55;1.85;;;;;;;;;;5074178;28;20031;-57
2023/04/12 02:13:05;;;;;;;1.95;1.00;;;;;;;;;;5074619;28;20070;-56
2023/04/12 02:15:32;;;;;;;3.45;1.48;;;;;;;;;;5074322;28;20048;-57
2023/04/12 02:17:58;;;;;;;1.98;1.02;;;;;;;;;;5074331;28;20458;-55
2023/04/12 02:20:24;;;;;;;2.75;1.52;;;;;;;;;;5073845;28;20025;-57
2023/04/12 02:22:50;;;;;;;4.53;1.52;;;;;;;;;;5073724;28;20024;-55
2023/04/12 02:25:16;;;;;;;4.00;1.23;;;;;;;;;;5072938;28;20028;-55
2023/04/12 02:27:43;;;;;;;1.20;0.70;;;;;;;;;;5073730;28;20025;-57
2023/04/12 02:30:09;;;;;;;3.47;1.10;;;;;;;;;;5073750;28;20029;-57
2023/04/12 02:32:44;;;;;;;3.17;1.42;;;;;;;;;;5073766;28;20035;-56
2023/04/12 02:35:16;;;;;;;2.25;1.13;;;;;;;;;;5073737;28;20029;-57
2023/04/12 02:37:42;;;;;;;7.28;1.50;;;;;;;;;;5074399;28;20408;-57
2023/04/12 02:40:14;;;;;;;1.88;1.05;;;;;;;;;;5073481;28;20036;-55
2023/04/12 02:42:41;;;;;;;2.97;1.23;;;;;;;;;;5074452;28;20032;-57
2023/04/12 02:45:07;;;;;;;3.35;1.05;;;;;;;;;;5073499;28;20039;-56
2023/04/12 02:47:33;;;;;;;3.47;1.27;;;;;;;;;;5073857;28;20033;-55
2023/04/12 02:49:59;;;;;;;3.67;1.17;;;;;;;;;;5073542;28;20528;-57
2023/04/12 02:52:25;;;;;;;2.45;1.33;;;;;;;;;;5073521;28;20016;-57
2023/04/12 02:54:51;;;;;;;2.85;1.63;;;;;;;;;;5074039;28;20078;-56
2023/04/12 02:57:19;;;;;;;2.03;0.80;;;;;;;;;;5073966;28;20408;-57
2023/04/12 02:59:46;;;;;;;2.38;1.65;;;;;;;;;;5073448;28;20033;-57
2023/04/12 03:02:12;;;;;;;4.95;2.05;;;;;;;;;;5073422;28;20024;-55
2023/04/12 03:04:38;;;;;;;4.00;1.63;;;;;;;;;;5073162;28;20095;-57
2023/04/12 03:07:05;;;;;;;3.40;1.20;;;;;;;;;;5073959;28;20036;-55
2023/04/12 03:09:31;;;;;;;3.65;2.10;;;;;;;;;;5073357;28;20139;-57
2023/04/12 03:11:57;;;;;;;1.65;1.27;;;;;;;;;;5073639;28;20064;-57
2023/04/12 03:14:23;;;;;;;5.25;1.75;;;;;;;;;;5073651;28;20049;-57
2023/04/12 03:16:50;;;;;;;4.30;2.25;;;;;;;;;;5073239;28;20536;-57
2023/04/12 03:19:16;;;;;;;6.00;2.05;;;;;;;;;;5073250;28;20133;-56
2023/04/12 03:21:42;;;;;;;2.65;1.48;;;;;;;;;;5073747;28;20112;-57
2023/04/12 03:24:08;;;;;;;4.05;1.75;;;;;;;;;;5073241;28;20056;-56
2023/04/12 03:26:34;;;;;;;4.18;1.60;;;;;;;;;;5073307;28;20055;-56
2023/04/12 03:29:06;;;;;;;2.50;1.33;;;;;;;;;;5073215;28;20027;-57
2023/04/12 03:31:33;;;;;;;1.77;1.20;;;;;;;;;;5073761;28;20028;-57
2023/04/12 03:33:59;;;;;;;2.25;1.27;;;;;;;;;;5073080;28;20021;-56
2023/04/12 03:36:28;;;;;;;4.55;2.20;;;;;;;;;;5076465;28;20039;-57
2023/04/12 03:38:54;;;;;;;2.15;1.25;;;;;;;;;;5077063;28;20064;-57
2023/04/12 03:41:23;;;;;;;1.65;1.23;;;;;;;;;;5076516;28;20032;-55
2023/04/12 03:43:49;;;;;;;4.22;2.33;;;;;;;;;;5076797;28;20035;-57
2023/04/12 03:46:16;;;;;;;4.03;1.98;;;;;;;;;;5077352;28;20373;-57
2023/04/12 03:48:42;;;;;;;2.75;1.77;;;;;;;;;;5076625;28;20391;-57
2023/04/12 03:51:10;;;;;;;3.50;2.05;;;;;;;;;;5076686;28;20454;-56
2023/04/12 03:53:37;;;;;;;3.75;2.25;;;;;;;;;;5077080;28;20033;-57
2023/04/12 03:56:03;;;;;;;3.92;2.05;;;;;;;;;;5076790;28;20097;-57
2023/04/12 03:58:29;;;;;;;3.60;1.38;;;;;;;;;;5076129;28;20432;-57
2023/04/12 04:00:55;;;;;;;3.05;1.80;;;;;;;;;;5076453;28;20103;-57
2023/04/12 04:03:25;;;;;;;5.38;1.33;;;;;;;;;;5076929;28;20074;-56
2023/04/12 04:05:51;;;;;;;4.78;2.00;;;;;;;;;;5077241;28;20032;-57
2023/04/12 04:08:17;;;;;;;5.63;3.67;;;;;;;;;;5076870;28;20389;-57
2023/04/12 04:10:43;;;;;;;2.63;1.75;;;;;;;;;;5076323;28;20108;-56
2023/04/12 04:13:09;;;;;;;2.85;1.83;;;;;;;;;;5076442;28;20048;-57
2023/04/12 04:15:36;;;;;;;3.10;2.15;;;;;;;;;;5075143;28;20143;-56
2023/04/12 04:18:02;;;;;;;4.65;2.58;;;;;;;;;;5076714;28;20020;-57
2023/04/12 04:20:28;;;;;;;8.20;3.67;;;;;;;;;;5076062;28;20021;-55
2023/04/12 04:22:54;;;;;;;4.82;2.58;;;;;;;;;;5075757;28;20100;-57
2023/04/12 04:25:20;;;;;;;4.65;2.83;;;;;;;;;;5076580;28;20020;-57
2023/04/12 04:27:48;;;;;;;2.97;2.15;;;;;;;;;;5075961;28;20096;-57
2023/04/12 04:30:15;;;;;;;2.22;2.00;;;;;;;;;;5075598;28;20489;-58
2023/04/12 04:32:41;;;;;;;3.70;2.45;;;;;;;;;;5076359;28;20016;-58
2023/04/12 04:35:07;;;;;;;6.82;2.67;;;;;;;;;;5075831;28;20017;-58
2023/04/12 04:37:34;;;;;;;3.95;2.35;;;;;;;;;;5076190;28;20112;-58
2023/04/12 04:40:08;;;;;;;2.65;2.03;;;;;;;;;;5075559;28;20119;-57
2023/04/12 04:42:34;;;;;;;3.30;2.00;;;;;;;;;;5076533;28;20024;-57
2023/04/12 04:45:11;;;;;;;6.53;2.40;;;;;;;;;;5075916;28;20078;-58
2023/04/12 04:47:37;;;;;;;3.75;2.50;;;;;;;;;;5075442;28;20071;-57
2023/04/12 04:50:03;;;;;;;3.38;2.50;;;;;;;;;;5075527;28;20056;-57
2023/04/12 04:52:29;;;;;;;4.28;2.90;;;;;;;;;;5075591;28;20035;-58
2023/04/12 04:54:56;;;;;;;4.10;3.03;;;;;;;;;;5076241;28;20024;-58
2023/04/12 04:57:22;;;;;;;3.40;2.50;;;;;;;;;;5076738;28;20097;-59
2023/04/12 04:59:48;;;;;;;3.83;2.83;;;;;;;;;;5075613;28;20063;-57
2023/04/12 05:02:15;;;;;;;5.10;2.92;;;;;;;;;;5075774;28;20048;-57
2023/04/12 05:04:41;;;;;;;4.53;3.45;;;;;;;;;;5075126;28;20029;-58
2023/04/12 05:07:07;;;;;;;3.75;2.50;;;;;;;;;;5075751;28;20108;-58
2023/04/12 05:09:33;;;;;;;13.38;2.78;;;;;;;;;;5075729;28;20502;-58
2023/04/12 05:11:59;;;;;;;3.97;2.88;;;;;;;;;;5075140;28;20367;-58
2023/04/12 05:14:25;;;;;;;4.28;2.08;;;;;;;;;;5075037;28;20056;-57
2023/04/12 05:16:51;;;;;;;5.10;3.15;;;;;;;;;;5075227;28;20028;-58
2023/04/12 05:19:17;;;;;;;3.83;2.67;;;;;;;;;;5075711;28;20178;-57
2023/04/12 05:21:43;;;;;;;5.25;3.50;;;;;;;;;;5074874;28;20028;-58
2023/04/12 05:24:10;;;;;;;3.47;2.13;;;;;;;;;;5074600;28;20024;-58
2023/04/12 05:26:36;;;;;;;3.65;2.30;;;;;;;;;;5075016;28;20395;-58
2023/04/12 05:29:02;;;;;;;4.07;3.22;;;;;;;;;;5074991;28;20025;-58
2023/04/12 05:31:28;;;;;;;3.92;2.58;;;;;;;;;;5074460;28;20111;-58
2023/04/12 05:33:54;;;;;;;8.10;3.20;;;;;;;;;;5075202;28;20050;-58
2023/04/12 05:36:20;;;;;;;4.13;2.28;;;;;;;;;;5075220;28;20493;-58
2023/04/12 05:38:46;;;;;;;4.32;2.58;;;;;;;;;;5074528;28;20521;-57
2023/04/12 05:41:12;;;;;;;4.32;2.67;;;;;;;;;;5074819;28;20025;-58
2023/04/12 05:43:38;;;;;;;4.72;3.60;;;;;;;;;;5074372;28;20028;-58
2023/04/12 05:46:06;;;;;;;4.60;2.28;;;;;;;;;;5074514;28;20024;-58
2023/04/12 05:48:32;;;;;;;4.72;2.58;;;;;;;;;;5074426;28;20024;-58
2023/04/12 05:50:58;;;;;;;3.85;2.35;;;;;;;;;;5074825;28;20427;-58
2023/04/12 05:53:24;;;;;;;4.40;2.67;;;;;;;;;;5073769;28;20024;-57
2023/04/12 05:55:50;;;;;;;4.80;2.78;;;;;;;;;;5074526;28;20082;-58
2023/04/12 05:58:16;;;;;;;4.40;2.33;;;;;;;;;;5073421;28;20371;-58
2023/04/12 06:00:42;;;;;;;5.32;2.58;;;;;;;;;;5073967;28;20035;-58
2023/04/12 06:03:10;;;;;;;5.78;2.20;;;;;;;;;;5074109;28;20363;-58
2023/04/12 06:05:36;;;;;;;4.00;1.55;;;;;;;;;;5074095;28;20071;-58
2023/04/12 06:08:04;;;;;;;3.47;2.17;;;;;;;;;;5074013;28;20064;-57
2023/04/12 06:10:30;;;;;;;4.57;2.38;;;;;;;;;;5073726;28;20386;-58
2023/04/12 06:12:56;;;;;;;3.28;2.05;;;;;;;;;;5074004;28;20035;-58
2023/04/12 06:15:21;;;;;;;3.78;2.00;;;;;;;;;;5074364;28;20080;-58
2023/04/12 06:17:50;;;;;;;5.35;3.03;;;;;;;;;;5073918;28;20055;-58
2023/04/12 06:20:16;;;;;;;5.05;2.60;;;;;;;;;;5074353;28;20040;-58
2023/04/12 06:22:42;;;;;;;3.58;1.80;;;;;;;;;;5073771;28;20058;-58
2023/04/12 06:25:08;;;;;;;3.70;1.98;;;;;;;;;;5074441;28;20021;-58
2023/04/12 06:27:34;;;;;;;3.25;2.10;;;;;;;;;;5073837;28;20028;-58
2023/04/12 06:30:00;;;;;;;3.58;2.00;;;;;;;;;;5073777;28;20119;-58
2023/04/12 06:32:26;;;;;;;5.30;2.30;;;;;;;;;;5074541;28;20451;-58
2023/04/12 06:34:52;;;;;;;8.55;2.60;;;;;;;;;;5073749;28;20075;-59
2023/04/12 06:37:18;;;;;;;3.20;1.98;;;;;;;;;;5074167;28;20351;-58
2023/04/12 06:39:44;;;;;;;2.42;1.70;;;;;;;;;;5073330;28;20043;-58
2023/04/12 06:42:10;;;;;;;5.30;2.78;;;;;;;;;;5073519;28;20463;-58
2023/04/12 06:44:36;;;;;;;6.03;2.20;;;;;;;;;;5073955;28;20036;-58
2023/04/12 06:47:02;;;;;;;4.75;2.13;;;;;;;;;;5073720;28;20140;-58
2023/04/12 06:49:28;;;;;;;2.70;1.92;;;;;;;;;;5073649;28;20378;-58
2023/04/12 06:51:54;;;;;;;3.42;2.15;;;;;;;;;;5073571;28;20060;-58
2023/04/12 06:54:20;;;;;;;2.28;1.48;;;;;;;;;;5073325;28;20075;-58
2023/04/12 06:56:46;;;;;;;2.85;1.92;;;;;;;;;;5073993;28;20040;-58
2023/04/12 06:59:12;;;;;;;2.53;1.48;;;;;;;;;;5073748;28;20081;-58
2023/04/12 07:01:38;;;;;;;3.78;2.08;;;;;;;;;;5073545;28;20069;-58
2023/04/12 07:04:04;;;;;;;2.72;1.90;;;;;;;;;;5073741;28;20021;-59
2023/04/12 07:06:30;;;;;;;3.53;2.42;;;;;;;;;;5073485;28;20113;-58
2023/04/12 07:08:56;;;;;;;2.45;1.67;;;;;;;;;;5074091;28;20028;-58
2023/04/12 07:11:22;;;;;;;2.50;1.40;;;;;;;;;;5076319;28;20051;-58
2023/04/12 07:13:48;;;;;;;3.28;1.98;;;;;;;;;;5078072;28;20115;-58
2023/04/12 07:16:14;;;;;;;3.45;1.75;;;;;;;;;;5077522;28;20032;-58
2023/04/12 07:18:40;;;;;;;5.82;2.42;;;;;;;;;;5077143;28;20032;-58
2023/04/12 07:21:06;;;;;;;3.50;2.20;;;;;;;;;;5077206;28;20032;-58
2023/04/12 07:23:33;;;;;;;3.75;1.88;;;;;;;;;;5076977;28;20090;-58
2023/04/12 07:25:59;;;;;;;3.08;1.95;;;;;;;;;;5077663;28;20021;-58
2023/04/12 07:28:25;;;;;;;1.67;0.88;;;;;;;;;;5077017;28;20027;-58
2023/04/12 07:30:51;;;;;;;3.20;1.10;;;;;;;;;;5077351;28;20095;-58
2023/04/12 07:33:17;;;;;;;1.73;0.93;;;;;;;;;;5077318;28;20028;-58
2023/04/12 07:35:43;;;;;;;3.40;1.60;;;;;;;;;;5076922;28;20029;-58
2023/04/12 07:38:09;;;;;;;2.30;1.58;;;;;;;;;;5077408;28;20064;-58
2023/04/12 07:40:35;;;;;;;2.15;1.15;;;;;;;;;;5076774;28;20036;-58
2023/04/12 07:43:01;;;;;;;2.05;1.00;;;;;;;;;;5077354;28;20025;-58
2023/04/12 07:45:28;;;;;;;1.90;1.05;;;;;;;;;;5077061;28;20462;-57
2023/04/12 07:47:54;;;;;;;3.25;1.10;;;;;;;;;;5076537;28;20479;-57
2023/04/12 07:50:20;;;;;;;1.85;1.13;;;;;;;;;;5076537;28;20040;-58
2023/04/12 07:52:46;;;;;;;2.70;1.05;;;;;;;;;;5076410;28;20040;-58
2023/04/12 07:55:12;;;;;;;2.15;1.15;;;;;;;;;;5076719;28;20020;-58
2023/04/12 07:57:38;;;;;;;3.75;0.80;;;;;;;;;;5076314;28;20040;-58
2023/04/12 08:00:04;;;;;;;1.65;1.20;;;;;;;;;;5075207;28;20033;-58
2023/04/12 08:02:30;;;;;;;1.15;0.75;;;;;;;;;;5076304;28;20024;-57
2023/04/12 08:04:56;;;;;;;2.70;1.20;;;;;;;;;;5075970;28;20040;-58
2023/04/12 08:07:22;;;;;;;1.88;0.80;;;;;;;;;;5076258;28;20026;-57
2023/04/12 08:09:49;;;;;;;3.90;1.25;;;;;;;;;;5076667;28;20162;-58
2023/04/12 08:12:15;;;;;;;1.58;0.85;;;;;;;;;;5076823;28;20031;-58
2023/04/12 08:14:41;;;;;;;2.25;1.13;;;;;;;;;;5076211;28;20071;-57
2023/04/12 08:17:07;;;;;;;2.00;1.20;;;;;;;;;;5076059;28;20108;-57
2023/04/12 08:19:34;;;;;;;1.05;0.68;;;;;;;;;;5076329;28;20040;-58
2023/04/12 08:22:00;;;;;;;2.85;1.35;;;;;;;;;;5074821;28;20021;-57
2023/04/12 08:24:26;;;;;;;2.15;1.10;;;;;;;;;;5076143;28;20037;-58
2023/04/12 08:26:52;;;;;;;1.75;0.85;;;;;;;;;;5076469;28;20459;-57
2023/04/12 08:29:18;;;;;;;1.88;0.85;;;;;;;;;;5076160;28;20100;-57
2023/04/12 08:31:44;;;;;;;1.95;1.17;;;;;;;;;;5075736;28;20052;-58
2023/04/12 08:34:10;;;;;;;2.78;1.35;;;;;;;;;;5075366;28;20450;-58
2023/04/12 08:36:36;;;;;;;1.58;0.90;;;;;;;;;;5076030;28;20051;-58
2023/04/12 08:39:02;;;;;;;1.65;1.00;;;;;;;;;;5075563;28;20024;-58
2023/04/12 08:41:28;;;;;;;2.38;1.33;;;;;;;;;;5076203;28;20362;-58
2023/04/12 08:43:54;;;;;;;1.90;1.15;;;;;;;;;;5075943;28;20078;-58
2023/04/12 08:46:20;;;;;;;1.80;1.08;;;;;;;;;;5075829;28;20528;-58
2023/04/12 08:48:48;;;;;;;2.28;1.45;;;;;;;;;;5075997;28;20036;-58
2023/04/12 08:51:15;;;;;;;1.63;0.85;;;;;;;;;;5075386;28;20347;-58
2023/04/12 08:53:41;;;;;;;1.95;1.20;;;;;;;;;;5075240;28;20036;-58
2023/04/12 08:56:11;;;;;;;1.77;1.05;;;;;;;;;;5075397;28;20039;-57
2023/04/12 08:58:41;;;;;;;3.20;1.02;;;;;;;;;;5075353;28;20021;-58
2023/04/12 09:01:10;;;;;;;2.25;1.15;;;;;;;;;;5075167;28;20033;-58
2023/04/12 09:03:36;;;;;;;2.17;1.25;;;;;;;;;;5074941;28;20031;-58
2023/04/12 09:06:02;;;;;;;1.77;1.00;;;;;;;;;;5075379;28;20111;-57
2023/04/12 09:08:28;;;;;;;4.03;1.40;;;;;;;;;;5075095;28;20028;-58
2023/04/12 09:10:54;;;;;;;1.92;0.85;;;;;;;;;;5075284;28;20037;-58
2023/04/12 09:13:31;;;;;;;2.33;1.13;;;;;;;;;;5075278;28;20442;-57
2023/04/12 09:15:57;;;;;;;2.05;1.02;;;;;;;;;;5075019;28;20425;-57
2023/04/12 09:18:23;;;;;;;2.72;1.40;;;;;;;;;;5075250;28;20020;-58
2023/04/12 09:20:49;;;;;;;2.55;0.98;;;;;;;;;;5074961;28;20025;-58
2023/04/12 09:23:19;;;;;;;2.72;1.90;;;;;;;;;;5075362;28;20021;-58
2023/04/12 09:25:47;;;;;;;1.92;1.40;;;;;;;;;;5075536;28;20124;-59
2023/04/12 09:28:26;;;;;;;2.25;1.23;;;;;;;;;;5074996;28;20421;-57
2023/04/12 09:30:52;;;;;;;2.38;1.25;;;;;;;;;;5074668;28;20024;-60
2023/04/12 09:33:19;;;;;;;2.45;1.20;;;;;;;;;;5074433;28;20370;-57
2023/04/12 09:35:46;;;;;;;4.13;1.77;;;;;;;;;;5074804;28;20025;-57
2023/04/12 09:38:12;;;;;;;1.70;1.02;;;;;;;;;;5074544;28;20044;-57
2023/04/12 09:40:38;;;;;;;2.03;1.35;;;;;;;;;;5074509;28;20016;-57
2023/04/12 09:43:04;;;;;;;2.25;1.20;;;;;;;;;;5074130;28;20055;-56
2023/04/12 09:45:34;;;;;;;2.10;0.98;;;;;;;;;;5074989;28;20020;-57
2023/04/12 09:48:00;;;;;;;2.05;1.42;;;;;;;;;;5075102;28;20033;-57
2023/04/12 09:50:27;;;;;;;2.22;1.30;;;;;;;;;;5074113;28;20427;-58
2023/04/12 09:52:54;;;;;;;3.35;1.60;;;;;;;;;;5074651;28;20158;-56
2023/04/12 09:55:24;;;;;;;4.35;1.38;;;;;;;;;;5074701;28;20028;-57
2023/04/12 09:57:50;;;;;;;2.13;1.17;;;;;;;;;;5074116;28;20059;-56
2023/04/12 10:00:17;;;;;;;3.22;1.17;;;;;;;;;;5074149;28;20021;-59
2023/04/12 10:02:46;;;;;;;2.03;1.27;;;;;;;;;;5074193;28;20027;-58
2023/04/12 10:05:13;;;;;;;1.88;1.15;;;;;;;;;;5074705;28;20017;-57
2023/04/12 10:07:42;;;;;;;2.53;1.45;;;;;;;;;;5073790;28;20500;-59
2023/04/12 10:10:11;;;;;;;3.78;1.52;;;;;;;;;;5074103;28;20127;-60
2023/04/12 10:12:37;;;;;;;2.05;1.10;;;;;;;;;;5074069;28;20020;-57
2023/04/12 10:15:12;;;;;;;3.00;0.95;;;;;;;;;;5074297;28;20387;-58
2023/04/12 10:17:45;;;;;;;1.67;0.88;;;;;;;;;;5074142;28;20036;-58
2023/04/12 10:20:12;;;;;;;1.90;0.98;;;;;;;;;;5073591;28;20560;-58
2023/04/12 10:22:42;;;;;;;1.80;1.23;;;;;;;;;;5073838;28;20029;-58
2023/04/12 10:25:12;;;;;;;3.33;1.67;;;;;;;;;;5074369;28;20029;-58
2023/04/12 10:27:42;;;;;;;2.15;1.35;;;;;;;;;;5073863;28;20025;-58
2023/04/12 10:30:22;;;;;;;4.65;2.05;;;;;;;;;;5074647;28;20024;-58
2023/04/12 10:33:07;;;;;;;2.50;1.05;;;;;;;;;;5074246;28;20023;-58
2023/04/12 10:35:51;;;;;;;2.00;1.13;;;;;;;;;;5074089;28;20032;-59
2023/04/12 10:38:17;;;;;;;2.60;1.23;;;;;;;;;;5073812;28;20059;-56
2023/04/12 10:41:02;;;;;;;1.70;0.90;;;;;;;;;;5073616;28;20528;-57
2023/04/12 10:43:28;;;;;;;1.90;0.88;;;;;;;;;;5073370;28;20028;-56
2023/04/12 10:45:55;;;;;;;4.20;1.27;;;;;;;;;;5079407;28;20036;-57
2023/04/12 10:48:32;;;;;;;2.95;1.17;;;;;;;;;;5080854;28;20021;-57
2023/04/12 10:51:22;;;;;;;2.20;1.20;;;;;;;;;;5080327;28;20111;-58
2023/04/12 10:53:48;;;;;;;2.85;1.25;;;;;;;;;;5080822;28;20107;-57
2023/04/12 10:56:35;;;;;;;2.25;1.17;;;;;;;;;;5080870;28;20020;-55
2023/04/12 10:59:04;;;;;;;1.48;0.93;;;;;;;;;;5080524;28;20025;-57
2023/04/12 11:01:30;;;;;;;2.63;1.23;;;;;;;;;;5080137;28;20042;-57
2023/04/12 11:04:15;;;;;;;1.70;0.68;;;;;;;;;;5080119;28;20021;-56
2023/04/12 11:06:41;;;;;;;2.22;1.23;;;;;;;;;;5080702;28;20036;-58
2023/04/12 11:09:16;;;;;;;2.60;1.50;;;;;;;;;;5080137;28;20017;-58
2023/04/12 11:11:42;;;;;;;1.77;0.73;;;;;;;;;;5080490;28;20032;-58
2023/04/12 11:14:09;;;;;;;2.78;0.90;;;;;;;;;;5080277;28;21817;-56
2023/04/12 11:16:55;;;;;;;1.65;1.00;;;;;;;;;;5080020;28;20028;-56
2023/04/12 11:19:22;;;;;;;0.80;0.35;;;;;;;;;;5080238;28;20116;-58
2023/04/12 11:21:48;;;;;;;1.27;0.63;;;;;;;;;;5080634;28;20099;-58
2023/04/12 11:24:15;;;;;;;3.38;0.90;;;;;;;;;;5080309;28;20108;-58
2023/04/12 11:26:41;;;;;;;0.80;0.38;;;;;;;;;;5080546;28;20047;-58
2023/04/12 11:29:07;;;;;;;1.40;0.60;;;;;;;;;;5080443;28;20024;-58
2023/04/12 11:31:33;;;;;;;2.88;1.08;;;;;;;;;;5080081;28;20020;-58
2023/04/12 11:33:59;;;;;;;1.73;0.70;;;;;;;;;;5080411;28;20020;-59
2023/04/12 11:36:26;;;;;;;2.55;0.85;;;;;;;;;;5080110;28;20028;-58
2023/04/12 11:38:55;;;;;;;1.38;0.50;;;;;;;;;;5079625;28;20024;-58
2023/04/12 11:41:21;;;;;;;1.70;0.95;;;;;;;;;;5079825;28;20413;-57
2023/04/12 11:43:47;;;;;;;1.33;0.73;;;;;;;;;;5079583;28;20032;-59
2023/04/12 11:46:15;;;;;;;1.58;0.90;;;;;;;;;;5080093;28;20418;-58
2023/04/12 11:48:44;;;;;;;3.40;0.60;;;;;;;;;;5079814;28;20086;-58
2023/04/12 11:51:20;;;;;;;2.88;1.88;;;;;;;;;;5079352;28;20385;-58
2023/04/12 11:53:46;;;;;;;2.00;0.85;;;;;;;;;;5080228;28;20028;-58
2023/04/12 11:56:12;;;;;;;2.05;1.20;;;;;;;;;;5079153;28;20377;-58
2023/04/12 11:58:38;;;;;;;3.28;1.88;;;;;;;;;;5076286;28;20398;-58
2023/04/12 12:01:04;;;;;;;1.23;0.73;;;;;;;;;;5076517;28;20370;-58
2023/04/12 12:03:30;;;;;;;1.33;0.50;;;;;;;;;;5076462;28;20028;-57
2023/04/12 12:05:56;;;;;;;2.95;0.47;;;;;;;;;;5076813;28;20029;-58
2023/04/12 12:08:23;;;;;;;2.30;0.30;;;;;;;;;;5076357;28;20032;-58
2023/04/12 12:10:49;;;;;;;2.78;0.70;;;;;;;;;;5076383;28;20024;-59
2023/04/12 12:13:15;;;;;;;1.08;0.55;;;;;;;;;;5076275;28;20111;-55
2023/04/12 12:15:44;;;;;;;1.63;0.70;;;;;;;;;;5076176;28;20495;-59
2023/04/12 12:18:10;;;;;;;1.17;0.75;;;;;;;;;;5076379;28;20443;-58
2023/04/12 12:20:54;;;;;;;1.02;0.47;;;;;;;;;;5076163;28;20064;-58
2023/04/12 12:23:28;;;;;;;1.27;0.55;;;;;;;;;;5075878;28;20025;-56
2023/04/12 12:25:56;;;;;;;1.50;0.75;;;;;;;;;;5076053;28;20462;-57
2023/04/12 12:28:23;;;;;;;1.42;0.60;;;;;;;;;;5076486;28;20028;-58
2023/04/12 12:30:52;;;;;;;1.98;0.60;;;;;;;;;;5075982;28;20059;-58
2023/04/12 12:33:19;;;;;;;3.22;0.52;;;;;;;;;;5076458;28;20343;-57
2023/04/12 12:35:45;;;;;;;1.90;0.88;;;;;;;;;;5075842;28;20190;-58
2023/04/12 12:38:11;;;;;;;1.90;1.00;;;;;;;;;;5075801;28;20032;-58
2023/04/12 12:40:37;;;;;;;2.28;0.50;;;;;;;;;;5075671;28;20024;-58
2023/04/12 12:43:05;;;;;;;0.63;0.28;;;;;;;;;;5075740;28;20033;-58
2023/04/12 12:45:32;;;;;;;1.38;0.60;;;;;;;;;;5076254;28;20032;-58
2023/04/12 12:48:02;;;;;;;1.42;0.47;;;;;;;;;;5076408;28;20107;-58
2023/04/12 12:50:29;;;;;;;0.65;0.25;;;;;;;;;;5076168;28;20093;-58
2023/04/12 12:52:55;;;;;;;1.13;0.45;;;;;;;;;;5076261;28;20029;-57
2023/04/12 12:55:22;;;;;;;0.70;0.47;;;;;;;;;;5075849;28;20046;-58
2023/04/12 12:57:48;;;;;;;1.63;0.70;;;;;;;;;;5075326;28;20364;-58
2023/04/12 13:00:16;;;;;;;2.53;0.80;;;;;;;;;;5075712;28;20478;-58
2023/04/12 13:02:42;;;;;;;1.75;0.57;;;;;;;;;;5076152;28;20023;-58
2023/04/12 13:05:09;;;;;;;1.23;0.22;;;;;;;;;;5076116;28;20362;-59
2023/04/12 13:07:35;;;;;;;0.93;0.45;;;;;;;;;;5074740;28;20517;-58
2023/04/12 13:10:01;;;;;;;3.55;0.38;;;;;;;;;;5074951;28;20458;-59
2023/04/12 13:12:27;;;;;;;0.75;0.30;;;;;;;;;;5075419;28;20119;-58
2023/04/12 13:14:53;;;;;;;1.55;0.63;;;;;;;;;;5075590;28;20123;-57
2023/04/12 13:17:20;;;;;;;0.60;0.30;;;;;;;;;;5074895;28;20036;-58
2023/04/12 13:19:46;;;;;;;1.23;0.47;;;;;;;;;;5074868;28;20028;-58
2023/04/12 13:22:13;;;;;;;0.95;0.60;;;;;;;;;;5075379;28;20025;-59
2023/04/12 13:24:39;;;;;;;4.88;0.65;;;;;;;;;;5075370;28;20406;-58
2023/04/12 13:27:05;;;;;;;1.92;0.40;;;;;;;;;;5075118;28;20470;-58
2023/04/12 13:29:30;;;;;;;1.08;0.55;;;;;;;;;;5075021;28;20060;-58
2023/04/12 13:31:56;;;;;;;0.73;0.50;;;;;;;;;;5075231;28;20020;-59
2023/04/12 13:34:22;;;;;;;0.57;0.30;;;;;;;;;;5074341;28;20028;-57
2023/04/12 13:36:49;;;;;;;0.88;0.32;;;;;;;;;;5075083;28;20117;-58
2023/04/12 13:39:15;;;;;;;0.80;0.30;;;;;;;;;;5074941;28;20074;-58
2023/04/12 13:41:41;;;;;;;1.38;0.52;;;;;;;;;;5074385;28;20035;-58
2023/04/12 13:44:07;;;;;;;0.40;0.20;;;;;;;;;;5074417;28;20020;-58
2023/04/12 13:46:33;;;;;;;1.38;0.60;;;;;;;;;;5075059;28;20428;-58
2023/04/12 13:48:59;;;;;;;1.58;0.55;;;;;;;;;;5074897;28;20025;-58
2023/04/12 13:51:25;;;;;;;1.48;0.63;;;;;;;;;;5074354;28;20028;-57
2023/04/12 13:53:51;;;;;;;1.10;0.43;;;;;;;;;;5073039;28;20024;-58
2023/04/12 13:56:18;;;;;;;3.75;0.63;;;;;;;;;;5074203;28;20028;-58
2023/04/12 13:58:44;;;;;;;1.58;0.40;;;;;;;;;;5075062;28;20028;-57
2023/04/12 14:01:10;;;;;;;0.63;0.30;;;;;;;;;;5074698;28;20028;-57
2023/04/12 14:03:36;;;;;;;1.00;0.50;;;;;;;;;;5074241;28;20478;-57
2023/04/12 14:06:02;;;;;;;1.13;0.52;;;;;;;;;;5074624;28;20040;-58
2023/04/12 14:08:31;;;;;;;0.95;0.47;;;;;;;;;;5074043;28;20167;-57
2023/04/12 14:10:57;;;;;;;1.02;0.45;;;;;;;;;;5074560;28;20493;-57
2023/04/12 14:13:23;;;;;;;1.20;0.52;;;;;;;;;;5074077;28;20039;-58
2023/04/12 14:15:52;;;;;;;0.90;0.40;;;;;;;;;;5074901;28;20063;-58
2023/04/12 14:18:19;;;;;;;2.08;0.50;;;;;;;;;;5074030;28;20079;-58
2023/04/12 14:20:48;;;;;;;1.58;0.45;;;;;;;;;;5073020;28;20151;-58
2023/04/12 14:23:14;;;;;;;1.73;0.40;;;;;;;;;;5074426;28;20036;-58
2023/04/12 14:25:40;;;;;;;1.55;0.55;;;;;;;;;;5074016;28;20020;-58
2023/04/12 14:28:06;;;;;;;1.52;0.35;;;;;;;;;;5074648;28;20032;-57
2023/04/12 14:30:32;;;;;;;1.83;0.40;;;;;;;;;;5074274;28;20115;-57
2023/04/12 14:32:58;;;;;;;0.45;0.20;;;;;;;;;;5073778;28;20086;-58
2023/04/12 14:35:24;;;;;;;2.38;0.52;;;;;;;;;;5073872;28;20036;-58
2023/04/12 14:37:50;;;;;;;2.60;0.38;;;;;;;;;;5073575;28;20509;-58
2023/04/12 14:40:17;;;;;;;2.33;0.52;;;;;;;;;;5073709;28;20028;-58
2023/04/12 14:42:43;;;;;;;1.67;0.85;;;;;;;;;;5073905;28;20447;-58
2023/04/12 14:45:09;;;;;;;0.75;0.35;;;;;;;;;;5073659;28;20039;-59